sensor_id;sensor_type;location;lat;lon;timestamp;P1;durP1;ratioP1;P2;durP2;ratioP2
24325;SDS011;12448;45.532;5.290;2023-05-23T00:01:19;16.58;;;10.52;;
24325;SDS011;12448;45.532;5.290;2023-05-23T00:03:45;13.27;;;10.85;;
24325;SDS011;12448;45.532;5.290;2023-05-23T00:06:12;14.00;;;11.10;;
24325;SDS011;12448;45.532;5.290;2023-05-23T00:08:38;15.90;;;11.52;;
24325;SDS011;12448;45.532;5.290;2023-05-23T00:11:04;15.60;;;12.68;;
24325;SDS011;12448;45.532;5.290;2023-05-23T00:13:30;16.90;;;13.00;;
24325;SDS011;12448;45.532;5.290;2023-05-23T00:15:58;14.10;;;11.02;;
24325;SDS011;12448;45.532;5.290;2023-05-23T00:18:24;14.02;;;12.02;;
24325;SDS011;12448;45.532;5.290;2023-05-23T00:20:50;16.38;;;12.45;;
24325;SDS011;12448;45.532;5.290;2023-05-23T00:23:15;17.60;;;13.00;;
24325;SDS011;12448;45.532;5.290;2023-05-23T00:25:46;18.95;;;13.98;;
24325;SDS011;12448;45.532;5.290;2023-05-23T00:28:16;23.17;;;15.27;;
24325;SDS011;12448;45.532;5.290;2023-05-23T00:30:42;22.27;;;16.67;;
24325;SDS011;12448;45.532;5.290;2023-05-23T00:33:08;19.88;;;15.80;;
24325;SDS011;12448;45.532;5.290;2023-05-23T00:35:34;21.70;;;15.95;;
24325;SDS011;12448;45.532;5.290;2023-05-23T00:37:59;24.13;;;17.75;;
24325;SDS011;12448;45.532;5.290;2023-05-23T00:40:26;24.77;;;18.67;;
24325;SDS011;12448;45.532;5.290;2023-05-23T00:42:51;24.65;;;19.25;;
24325;SDS011;12448;45.532;5.290;2023-05-23T00:45:17;24.83;;;19.98;;
24325;SDS011;12448;45.532;5.290;2023-05-23T00:47:43;25.17;;;19.80;;
24325;SDS011;12448;45.532;5.290;2023-05-23T00:50:10;25.73;;;19.73;;
24325;SDS011;12448;45.532;5.290;2023-05-23T00:52:38;27.70;;;20.67;;
24325;SDS011;12448;45.532;5.290;2023-05-23T00:55:05;25.35;;;19.88;;
24325;SDS011;12448;45.532;5.290;2023-05-23T00:57:32;27.90;;;20.23;;
24325;SDS011;12448;45.532;5.290;2023-05-23T00:59:59;32.05;;;21.75;;
24325;SDS011;12448;45.532;5.290;2023-05-23T01:02:25;27.23;;;20.90;;
24325;SDS011;12448;45.532;5.290;2023-05-23T01:04:51;28.52;;;20.25;;
24325;SDS011;12448;45.532;5.290;2023-05-23T01:07:22;29.67;;;21.80;;
24325;SDS011;12448;45.532;5.290;2023-05-23T01:09:47;30.48;;;21.60;;
24325;SDS011;12448;45.532;5.290;2023-05-23T01:17:43;22.05;;;16.77;;
24325;SDS011;12448;45.532;5.290;2023-05-23T01:20:11;25.35;;;18.83;;
24325;SDS011;12448;45.532;5.290;2023-05-23T01:27:52;23.88;;;17.80;;
24325;SDS011;12448;45.532;5.290;2023-05-23T01:30:20;28.27;;;19.15;;
24325;SDS011;12448;45.532;5.290;2023-05-23T01:32:49;23.42;;;18.58;;
24325;SDS011;12448;45.532;5.290;2023-05-23T01:35:17;24.50;;;18.48;;
24325;SDS011;12448;45.532;5.290;2023-05-23T01:37:49;25.02;;;19.58;;
24325;SDS011;12448;45.532;5.290;2023-05-23T01:40:15;28.83;;;20.08;;
24325;SDS011;12448;45.532;5.290;2023-05-23T01:42:40;26.63;;;20.40;;
24325;SDS011;12448;45.532;5.290;2023-05-23T01:45:06;28.20;;;22.15;;
24325;SDS011;12448;45.532;5.290;2023-05-23T01:47:32;29.63;;;23.20;;
24325;SDS011;12448;45.532;5.290;2023-05-23T01:49:59;32.85;;;24.08;;
24325;SDS011;12448;45.532;5.290;2023-05-23T01:52:26;33.63;;;26.00;;
24325;SDS011;12448;45.532;5.290;2023-05-23T01:54:53;32.72;;;24.42;;
24325;SDS011;12448;45.532;5.290;2023-05-23T01:57:21;29.40;;;23.55;;
24325;SDS011;12448;45.532;5.290;2023-05-23T01:59:46;31.13;;;23.70;;
24325;SDS011;12448;45.532;5.290;2023-05-23T02:02:12;31.17;;;24.63;;
24325;SDS011;12448;45.532;5.290;2023-05-23T02:04:38;33.67;;;26.77;;
24325;SDS011;12448;45.532;5.290;2023-05-23T02:07:04;33.65;;;26.60;;
24325;SDS011;12448;45.532;5.290;2023-05-23T02:09:30;34.08;;;26.85;;
24325;SDS011;12448;45.532;5.290;2023-05-23T02:11:55;37.13;;;27.98;;
24325;SDS011;12448;45.532;5.290;2023-05-23T02:14:21;37.85;;;29.42;;
24325;SDS011;12448;45.532;5.290;2023-05-23T02:16:47;39.15;;;30.20;;
24325;SDS011;12448;45.532;5.290;2023-05-23T02:19:13;39.00;;;30.10;;
24325;SDS011;12448;45.532;5.290;2023-05-23T02:21:39;38.60;;;30.67;;
24325;SDS011;12448;45.532;5.290;2023-05-23T02:24:04;43.47;;;31.10;;
24325;SDS011;12448;45.532;5.290;2023-05-23T02:26:30;43.78;;;32.95;;
24325;SDS011;12448;45.532;5.290;2023-05-23T02:28:55;44.20;;;33.88;;
24325;SDS011;12448;45.532;5.290;2023-05-23T02:31:21;46.90;;;34.13;;
24325;SDS011;12448;45.532;5.290;2023-05-23T02:33:47;47.03;;;34.80;;
24325;SDS011;12448;45.532;5.290;2023-05-23T02:36:13;49.53;;;37.88;;
24325;SDS011;12448;45.532;5.290;2023-05-23T02:38:38;51.60;;;36.17;;
24325;SDS011;12448;45.532;5.290;2023-05-23T02:41:04;46.40;;;35.30;;
24325;SDS011;12448;45.532;5.290;2023-05-23T02:43:29;51.03;;;36.22;;
24325;SDS011;12448;45.532;5.290;2023-05-23T02:45:55;49.08;;;36.20;;
24325;SDS011;12448;45.532;5.290;2023-05-23T02:48:21;46.10;;;35.38;;
24325;SDS011;12448;45.532;5.290;2023-05-23T02:50:46;48.20;;;34.90;;
24325;SDS011;12448;45.532;5.290;2023-05-23T02:53:12;48.38;;;34.67;;
24325;SDS011;12448;45.532;5.290;2023-05-23T02:55:37;49.08;;;34.95;;
24325;SDS011;12448;45.532;5.290;2023-05-23T02:58:03;47.72;;;35.95;;
24325;SDS011;12448;45.532;5.290;2023-05-23T03:00:29;48.33;;;34.70;;
24325;SDS011;12448;45.532;5.290;2023-05-23T03:02:56;49.03;;;34.28;;
24325;SDS011;12448;45.532;5.290;2023-05-23T03:05:22;45.63;;;35.10;;
24325;SDS011;12448;45.532;5.290;2023-05-23T03:07:47;47.28;;;35.00;;
24325;SDS011;12448;45.532;5.290;2023-05-23T03:10:13;49.35;;;36.17;;
24325;SDS011;12448;45.532;5.290;2023-05-23T03:12:39;44.67;;;33.65;;
24325;SDS011;12448;45.532;5.290;2023-05-23T03:15:05;50.25;;;34.78;;
24325;SDS011;12448;45.532;5.290;2023-05-23T03:17:30;49.45;;;34.25;;
24325;SDS011;12448;45.532;5.290;2023-05-23T03:19:56;50.00;;;35.78;;
24325;SDS011;12448;45.532;5.290;2023-05-23T03:22:22;45.33;;;34.97;;
24325;SDS011;12448;45.532;5.290;2023-05-23T03:24:47;51.25;;;35.90;;
24325;SDS011;12448;45.532;5.290;2023-05-23T03:27:13;49.67;;;35.97;;
24325;SDS011;12448;45.532;5.290;2023-05-23T03:30:11;47.78;;;35.78;;
24325;SDS011;12448;45.532;5.290;2023-05-23T03:32:37;49.47;;;37.13;;
24325;SDS011;12448;45.532;5.290;2023-05-23T03:37:36;54.47;;;38.40;;
24325;SDS011;12448;45.532;5.290;2023-05-23T03:40:05;54.08;;;35.67;;
24325;SDS011;12448;45.532;5.290;2023-05-23T03:42:31;50.90;;;38.95;;
24325;SDS011;12448;45.532;5.290;2023-05-23T03:45:14;51.80;;;37.42;;
24325;SDS011;12448;45.532;5.290;2023-05-23T03:47:42;50.72;;;38.10;;
24325;SDS011;12448;45.532;5.290;2023-05-23T03:50:08;52.30;;;38.95;;
24325;SDS011;12448;45.532;5.290;2023-05-23T03:52:34;52.92;;;38.20;;
24325;SDS011;12448;45.532;5.290;2023-05-23T03:55:00;53.40;;;37.63;;
24325;SDS011;12448;45.532;5.290;2023-05-23T03:57:26;55.72;;;38.30;;
24325;SDS011;12448;45.532;5.290;2023-05-23T03:59:51;58.97;;;39.95;;
24325;SDS011;12448;45.532;5.290;2023-05-23T04:02:17;55.22;;;39.92;;
24325;SDS011;12448;45.532;5.290;2023-05-23T04:04:43;57.50;;;40.90;;
24325;SDS011;12448;45.532;5.290;2023-05-23T04:07:09;57.03;;;40.33;;
24325;SDS011;12448;45.532;5.290;2023-05-23T04:09:35;60.05;;;39.97;;
24325;SDS011;12448;45.532;5.290;2023-05-23T04:12:07;55.13;;;40.03;;
24325;SDS011;12448;45.532;5.290;2023-05-23T04:14:33;58.45;;;40.03;;
24325;SDS011;12448;45.532;5.290;2023-05-23T04:16:59;57.78;;;42.28;;
24325;SDS011;12448;45.532;5.290;2023-05-23T04:19:25;57.42;;;41.38;;
24325;SDS011;12448;45.532;5.290;2023-05-23T04:21:51;58.15;;;41.08;;
24325;SDS011;12448;45.532;5.290;2023-05-23T04:24:17;55.50;;;40.05;;
24325;SDS011;12448;45.532;5.290;2023-05-23T04:26:46;62.28;;;41.78;;
24325;SDS011;12448;45.532;5.290;2023-05-23T04:29:14;59.67;;;41.75;;
24325;SDS011;12448;45.532;5.290;2023-05-23T04:31:40;65.53;;;43.28;;
24325;SDS011;12448;45.532;5.290;2023-05-23T04:34:06;75.03;;;43.08;;
24325;SDS011;12448;45.532;5.290;2023-05-23T04:36:32;57.47;;;41.67;;
24325;SDS011;12448;45.532;5.290;2023-05-23T04:38:57;90.82;;;43.50;;
24325;SDS011;12448;45.532;5.290;2023-05-23T04:41:23;61.22;;;42.00;;
24325;SDS011;12448;45.532;5.290;2023-05-23T04:43:48;60.53;;;42.97;;
24325;SDS011;12448;45.532;5.290;2023-05-23T04:46:18;67.47;;;43.22;;
24325;SDS011;12448;45.532;5.290;2023-05-23T04:48:50;59.90;;;41.15;;
24325;SDS011;12448;45.532;5.290;2023-05-23T04:51:16;101.45;;;44.00;;
24325;SDS011;12448;45.532;5.290;2023-05-23T04:53:42;58.85;;;40.63;;
24325;SDS011;12448;45.532;5.290;2023-05-23T04:56:11;69.13;;;42.55;;
24325;SDS011;12448;45.532;5.290;2023-05-23T04:58:36;66.15;;;44.20;;
24325;SDS011;12448;45.532;5.290;2023-05-23T05:01:04;95.75;;;45.70;;
24325;SDS011;12448;45.532;5.290;2023-05-23T05:03:30;66.63;;;47.00;;
24325;SDS011;12448;45.532;5.290;2023-05-23T05:05:56;111.65;;;48.47;;
24325;SDS011;12448;45.532;5.290;2023-05-23T05:08:22;63.75;;;45.88;;
24325;SDS011;12448;45.532;5.290;2023-05-23T05:10:50;69.93;;;46.28;;
24325;SDS011;12448;45.532;5.290;2023-05-23T05:13:16;71.90;;;47.97;;
24325;SDS011;12448;45.532;5.290;2023-05-23T05:15:41;189.75;;;49.15;;
24325;SDS011;12448;45.532;5.290;2023-05-23T05:18:07;74.85;;;47.42;;
24325;SDS011;12448;45.532;5.290;2023-05-23T05:20:36;118.25;;;44.78;;
24325;SDS011;12448;45.532;5.290;2023-05-23T05:23:02;104.82;;;46.28;;
24325;SDS011;12448;45.532;5.290;2023-05-23T05:25:54;105.50;;;47.22;;
24325;SDS011;12448;45.532;5.290;2023-05-23T05:28:20;206.70;;;47.30;;
24325;SDS011;12448;45.532;5.290;2023-05-23T05:30:49;124.53;;;47.03;;
24325;SDS011;12448;45.532;5.290;2023-05-23T05:33:18;202.35;;;46.00;;
24325;SDS011;12448;45.532;5.290;2023-05-23T05:35:52;114.32;;;44.33;;
24325;SDS011;12448;45.532;5.290;2023-05-23T05:38:18;197.63;;;43.28;;
24325;SDS011;12448;45.532;5.290;2023-05-23T05:40:43;64.28;;;42.88;;
24325;SDS011;12448;45.532;5.290;2023-05-23T05:43:09;77.15;;;41.40;;
24325;SDS011;12448;45.532;5.290;2023-05-23T05:45:35;89.25;;;43.15;;
24325;SDS011;12448;45.532;5.290;2023-05-23T05:48:01;76.40;;;42.25;;
24325;SDS011;12448;45.532;5.290;2023-05-23T05:50:27;115.50;;;42.55;;
24325;SDS011;12448;45.532;5.290;2023-05-23T05:52:53;138.90;;;43.50;;
24325;SDS011;12448;45.532;5.290;2023-05-23T05:55:21;69.65;;;41.47;;
24325;SDS011;12448;45.532;5.290;2023-05-23T05:57:46;225.23;;;43.90;;
24325;SDS011;12448;45.532;5.290;2023-05-23T06:00:12;567.53;;;47.22;;
24325;SDS011;12448;45.532;5.290;2023-05-23T06:02:43;169.73;;;43.45;;
24325;SDS011;12448;45.532;5.290;2023-05-23T06:05:18;248.75;;;47.40;;
24325;SDS011;12448;45.532;5.290;2023-05-23T06:07:47;216.43;;;46.72;;
24325;SDS011;12448;45.532;5.290;2023-05-23T06:10:13;240.63;;;47.17;;
24325;SDS011;12448;45.532;5.290;2023-05-23T06:12:40;136.48;;;46.60;;
24325;SDS011;12448;45.532;5.290;2023-05-23T06:15:10;381.45;;;47.67;;
24325;SDS011;12448;45.532;5.290;2023-05-23T06:17:37;158.63;;;43.17;;
24325;SDS011;12448;45.532;5.290;2023-05-23T06:20:03;670.60;;;47.15;;
24325;SDS011;12448;45.532;5.290;2023-05-23T06:22:29;213.18;;;48.75;;
24325;SDS011;12448;45.532;5.290;2023-05-23T06:24:55;333.70;;;46.80;;
24325;SDS011;12448;45.532;5.290;2023-05-23T06:27:20;279.38;;;46.30;;
24325;SDS011;12448;45.532;5.290;2023-05-23T06:29:46;674.65;;;48.60;;
24325;SDS011;12448;45.532;5.290;2023-05-23T06:32:14;273.80;;;44.08;;
24325;SDS011;12448;45.532;5.290;2023-05-23T06:34:40;648.38;;;48.58;;
24325;SDS011;12448;45.532;5.290;2023-05-23T06:37:06;422.63;;;44.80;;
24325;SDS011;12448;45.532;5.290;2023-05-23T06:39:31;239.63;;;42.15;;
24325;SDS011;12448;45.532;5.290;2023-05-23T06:41:57;138.02;;;42.40;;
24325;SDS011;12448;45.532;5.290;2023-05-23T06:44:26;80.57;;;41.58;;
24325;SDS011;12448;45.532;5.290;2023-05-23T06:46:52;217.52;;;42.10;;
24325;SDS011;12448;45.532;5.290;2023-05-23T06:49:22;183.15;;;42.78;;
24325;SDS011;12448;45.532;5.290;2023-05-23T06:51:49;280.50;;;41.58;;
24325;SDS011;12448;45.532;5.290;2023-05-23T06:54:15;214.90;;;43.42;;
24325;SDS011;12448;45.532;5.290;2023-05-23T06:56:41;407.00;;;44.60;;
24325;SDS011;12448;45.532;5.290;2023-05-23T06:59:07;236.40;;;44.72;;
24325;SDS011;12448;45.532;5.290;2023-05-23T07:01:33;220.23;;;45.90;;
24325;SDS011;12448;45.532;5.290;2023-05-23T07:03:59;846.38;;;51.83;;
24325;SDS011;12448;45.532;5.290;2023-05-23T07:06:25;350.17;;;46.55;;
24325;SDS011;12448;45.532;5.290;2023-05-23T07:08:56;500.98;;;44.97;;
24325;SDS011;12448;45.532;5.290;2023-05-23T07:11:21;369.55;;;44.03;;
24325;SDS011;12448;45.532;5.290;2023-05-23T07:13:47;130.20;;;44.70;;
24325;SDS011;12448;45.532;5.290;2023-05-23T07:16:13;445.98;;;44.25;;
24325;SDS011;12448;45.532;5.290;2023-05-23T07:18:39;161.55;;;46.33;;
24325;SDS011;12448;45.532;5.290;2023-05-23T07:21:04;79.80;;;45.08;;
24325;SDS011;12448;45.532;5.290;2023-05-23T07:23:33;81.78;;;46.28;;
24325;SDS011;12448;45.532;5.290;2023-05-23T07:25:59;185.15;;;47.20;;
24325;SDS011;12448;45.532;5.290;2023-05-23T07:28:26;155.38;;;43.47;;
24325;SDS011;12448;45.532;5.290;2023-05-23T07:30:52;112.00;;;46.60;;
24325;SDS011;12448;45.532;5.290;2023-05-23T07:33:18;142.48;;;43.85;;
24325;SDS011;12448;45.532;5.290;2023-05-23T07:35:44;101.18;;;44.72;;
24325;SDS011;12448;45.532;5.290;2023-05-23T07:38:09;133.70;;;43.60;;
24325;SDS011;12448;45.532;5.290;2023-05-23T07:40:35;77.07;;;45.17;;
24325;SDS011;12448;45.532;5.290;2023-05-23T07:43:02;168.88;;;44.88;;
24325;SDS011;12448;45.532;5.290;2023-05-23T07:45:28;74.25;;;45.13;;
24325;SDS011;12448;45.532;5.290;2023-05-23T07:47:54;84.70;;;44.80;;
24325;SDS011;12448;45.532;5.290;2023-05-23T07:50:22;79.18;;;44.58;;
24325;SDS011;12448;45.532;5.290;2023-05-23T07:52:48;86.47;;;44.38;;
24325;SDS011;12448;45.532;5.290;2023-05-23T07:55:20;70.72;;;44.10;;
24325;SDS011;12448;45.532;5.290;2023-05-23T07:57:46;72.38;;;42.65;;
24325;SDS011;12448;45.532;5.290;2023-05-23T08:00:16;90.57;;;42.17;;
24325;SDS011;12448;45.532;5.290;2023-05-23T08:02:45;80.28;;;43.35;;
24325;SDS011;12448;45.532;5.290;2023-05-23T08:05:20;101.80;;;43.60;;
24325;SDS011;12448;45.532;5.290;2023-05-23T08:07:48;69.20;;;41.33;;
24325;SDS011;12448;45.532;5.290;2023-05-23T08:10:27;121.78;;;43.63;;
24325;SDS011;12448;45.532;5.290;2023-05-23T08:12:55;81.50;;;40.05;;
24325;SDS011;12448;45.532;5.290;2023-05-23T08:15:24;97.05;;;43.25;;
24325;SDS011;12448;45.532;5.290;2023-05-23T08:17:50;80.80;;;41.90;;
24325;SDS011;12448;45.532;5.290;2023-05-23T08:20:15;75.47;;;42.20;;
24325;SDS011;12448;45.532;5.290;2023-05-23T08:22:41;75.93;;;41.20;;
24325;SDS011;12448;45.532;5.290;2023-05-23T08:25:10;67.38;;;36.33;;
24325;SDS011;12448;45.532;5.290;2023-05-23T08:27:39;69.57;;;39.20;;
24325;SDS011;12448;45.532;5.290;2023-05-23T08:30:05;77.10;;;42.35;;
24325;SDS011;12448;45.532;5.290;2023-05-23T08:32:32;80.30;;;39.88;;
24325;SDS011;12448;45.532;5.290;2023-05-23T08:35:02;69.45;;;41.00;;
24325;SDS011;12448;45.532;5.290;2023-05-23T08:37:28;82.25;;;43.28;;
24325;SDS011;12448;45.532;5.290;2023-05-23T08:39:56;77.85;;;41.83;;
24325;SDS011;12448;45.532;5.290;2023-05-23T08:42:22;81.22;;;43.35;;
24325;SDS011;12448;45.532;5.290;2023-05-23T08:44:48;75.18;;;40.08;;
24325;SDS011;12448;45.532;5.290;2023-05-23T08:47:16;65.20;;;40.70;;
24325;SDS011;12448;45.532;5.290;2023-05-23T08:49:44;69.38;;;40.83;;
24325;SDS011;12448;45.532;5.290;2023-05-23T08:52:13;71.35;;;39.75;;
24325;SDS011;12448;45.532;5.290;2023-05-23T08:54:46;66.28;;;39.92;;
24325;SDS011;12448;45.532;5.290;2023-05-23T08:57:11;71.13;;;40.38;;
24325;SDS011;12448;45.532;5.290;2023-05-23T08:59:37;67.20;;;39.10;;
24325;SDS011;12448;45.532;5.290;2023-05-23T09:02:12;65.70;;;37.50;;
24325;SDS011;12448;45.532;5.290;2023-05-23T09:04:41;60.22;;;38.33;;
24325;SDS011;12448;45.532;5.290;2023-05-23T09:07:10;65.90;;;38.67;;
24325;SDS011;12448;45.532;5.290;2023-05-23T09:09:40;61.88;;;36.40;;
24325;SDS011;12448;45.532;5.290;2023-05-23T09:12:06;55.75;;;35.25;;
24325;SDS011;12448;45.532;5.290;2023-05-23T09:14:34;57.65;;;35.63;;
24325;SDS011;12448;45.532;5.290;2023-05-23T09:17:01;61.40;;;35.80;;
24325;SDS011;12448;45.532;5.290;2023-05-23T09:19:27;57.80;;;35.47;;
24325;SDS011;12448;45.532;5.290;2023-05-23T09:21:59;57.22;;;35.97;;
24325;SDS011;12448;45.532;5.290;2023-05-23T09:24:33;52.85;;;35.47;;
24325;SDS011;12448;45.532;5.290;2023-05-23T09:29:52;57.72;;;35.10;;
24325;SDS011;12448;45.532;5.290;2023-05-23T09:32:29;50.50;;;33.75;;
24325;SDS011;12448;45.532;5.290;2023-05-23T09:34:56;53.15;;;34.63;;
24325;SDS011;12448;45.532;5.290;2023-05-23T09:37:45;58.22;;;34.78;;
24325;SDS011;12448;45.532;5.290;2023-05-23T09:40:37;60.50;;;35.53;;
24325;SDS011;12448;45.532;5.290;2023-05-23T09:43:34;55.55;;;35.78;;
24325;SDS011;12448;45.532;5.290;2023-05-23T09:46:13;57.63;;;35.90;;
24325;SDS011;12448;45.532;5.290;2023-05-23T09:48:49;55.17;;;36.85;;
24325;SDS011;12448;45.532;5.290;2023-05-23T09:51:20;62.05;;;36.08;;
24325;SDS011;12448;45.532;5.290;2023-05-23T09:53:48;56.75;;;36.92;;
24325;SDS011;12448;45.532;5.290;2023-05-23T09:56:17;59.55;;;36.33;;
24325;SDS011;12448;45.532;5.290;2023-05-23T09:58:45;60.45;;;37.97;;
24325;SDS011;12448;45.532;5.290;2023-05-23T10:01:12;58.75;;;36.28;;
24325;SDS011;12448;45.532;5.290;2023-05-23T10:09:44;63.08;;;38.70;;
24325;SDS011;12448;45.532;5.290;2023-05-23T10:12:55;68.90;;;39.75;;
24325;SDS011;12448;45.532;5.290;2023-05-23T10:19:50;73.65;;;42.38;;
24325;SDS011;12448;45.532;5.290;2023-05-23T10:22:53;76.43;;;43.50;;
24325;SDS011;12448;45.532;5.290;2023-05-23T10:25:20;71.40;;;41.58;;
24325;SDS011;12448;45.532;5.290;2023-05-23T10:27:46;74.22;;;41.90;;
24325;SDS011;12448;45.532;5.290;2023-05-23T10:30:14;72.30;;;43.67;;
24325;SDS011;12448;45.532;5.290;2023-05-23T10:32:39;71.72;;;41.05;;
24325;SDS011;12448;45.532;5.290;2023-05-23T10:44:47;85.40;;;43.08;;
24325;SDS011;12448;45.532;5.290;2023-05-23T10:47:31;79.15;;;44.05;;
24325;SDS011;12448;45.532;5.290;2023-05-23T10:57:17;78.25;;;43.55;;
24325;SDS011;12448;45.532;5.290;2023-05-23T10:59:44;77.18;;;41.35;;
24325;SDS011;12448;45.532;5.290;2023-05-23T11:02:14;69.82;;;40.67;;
24325;SDS011;12448;45.532;5.290;2023-05-23T11:11:13;76.32;;;41.83;;
24325;SDS011;12448;45.532;5.290;2023-05-23T11:14:06;74.65;;;42.08;;
24325;SDS011;12448;45.532;5.290;2023-05-23T11:20:07;78.55;;;43.70;;
24325;SDS011;12448;45.532;5.290;2023-05-23T11:22:47;79.05;;;41.55;;
24325;SDS011;12448;45.532;5.290;2023-05-23T11:28:57;72.85;;;41.88;;
24325;SDS011;12448;45.532;5.290;2023-05-23T11:31:52;79.72;;;43.00;;
24325;SDS011;12448;45.532;5.290;2023-05-23T11:37:55;80.50;;;42.47;;
24325;SDS011;12448;45.532;5.290;2023-05-23T11:41:03;74.55;;;41.20;;
24325;SDS011;12448;45.532;5.290;2023-05-23T11:44:14;74.60;;;40.33;;
24325;SDS011;12448;45.532;5.290;2023-05-23T11:47:01;76.30;;;40.80;;
24325;SDS011;12448;45.532;5.290;2023-05-23T11:49:47;70.88;;;37.92;;
24325;SDS011;12448;45.532;5.290;2023-05-23T11:59:35;61.17;;;36.70;;
24325;SDS011;12448;45.532;5.290;2023-05-23T12:19:18;63.55;;;36.58;;
24325;SDS011;12448;45.532;5.290;2023-05-23T12:25:16;60.47;;;36.92;;
24325;SDS011;12448;45.532;5.290;2023-05-23T12:27:41;57.65;;;36.17;;
24325;SDS011;12448;45.532;5.290;2023-05-23T12:30:14;58.72;;;35.38;;
24325;SDS011;12448;45.532;5.290;2023-05-23T12:32:44;55.90;;;34.40;;
24325;SDS011;12448;45.532;5.290;2023-05-23T12:35:45;59.30;;;34.05;;
24325;SDS011;12448;45.532;5.290;2023-05-23T12:41:34;57.08;;;34.72;;
24325;SDS011;12448;45.532;5.290;2023-05-23T12:44:00;57.42;;;35.15;;
24325;SDS011;12448;45.532;5.290;2023-05-23T12:53:37;54.72;;;33.13;;
24325;SDS011;12448;45.532;5.290;2023-05-23T12:57:45;53.63;;;33.70;;
24325;SDS011;12448;45.532;5.290;2023-05-23T13:00:42;58.75;;;36.00;;
24325;SDS011;12448;45.532;5.290;2023-05-23T13:03:42;56.30;;;35.97;;
24325;SDS011;12448;45.532;5.290;2023-05-23T13:06:47;65.57;;;35.97;;
24325;SDS011;12448;45.532;5.290;2023-05-23T13:09:58;55.70;;;35.72;;
24325;SDS011;12448;45.532;5.290;2023-05-23T13:13:09;58.05;;;37.38;;
24325;SDS011;12448;45.532;5.290;2023-05-23T13:15:56;56.05;;;35.95;;
24325;SDS011;12448;45.532;5.290;2023-05-23T13:18:50;56.40;;;36.55;;
24325;SDS011;12448;45.532;5.290;2023-05-23T13:21:26;52.47;;;33.30;;
24325;SDS011;12448;45.532;5.290;2023-05-23T13:30:42;53.22;;;35.42;;
24325;SDS011;12448;45.532;5.290;2023-05-23T13:33:08;55.28;;;35.28;;
24325;SDS011;12448;45.532;5.290;2023-05-23T13:35:34;58.05;;;36.70;;
24325;SDS011;12448;45.532;5.290;2023-05-23T13:38:24;56.00;;;35.28;;
24325;SDS011;12448;45.532;5.290;2023-05-23T13:41:37;56.17;;;34.83;;
24325;SDS011;12448;45.532;5.290;2023-05-23T13:44:06;51.60;;;34.58;;
24325;SDS011;12448;45.532;5.290;2023-05-23T13:46:41;53.85;;;33.00;;
24325;SDS011;12448;45.532;5.290;2023-05-23T13:49:07;52.90;;;34.35;;
24325;SDS011;12448;45.532;5.290;2023-05-23T13:51:33;54.67;;;34.97;;
24325;SDS011;12448;45.532;5.290;2023-05-23T13:54:04;51.03;;;34.05;;
24325;SDS011;12448;45.532;5.290;2023-05-23T13:56:32;52.97;;;34.33;;
24325;SDS011;12448;45.532;5.290;2023-05-23T13:59:07;50.67;;;32.95;;
24325;SDS011;12448;45.532;5.290;2023-05-23T14:02:16;47.83;;;32.30;;
24325;SDS011;12448;45.532;5.290;2023-05-23T14:04:23;52.22;;;33.13;;
24325;SDS011;12448;45.532;5.290;2023-05-23T14:06:54;53.42;;;34.67;;
24325;SDS011;12448;45.532;5.290;2023-05-23T14:09:35;51.47;;;32.08;;
24325;SDS011;12448;45.532;5.290;2023-05-23T14:12:23;55.00;;;32.95;;
24325;SDS011;12448;45.532;5.290;2023-05-23T14:14:58;48.00;;;31.15;;
24325;SDS011;12448;45.532;5.290;2023-05-23T14:17:27;45.63;;;31.45;;
24325;SDS011;12448;45.532;5.290;2023-05-23T14:20:21;45.00;;;30.33;;
24325;SDS011;12448;45.532;5.290;2023-05-23T14:22:50;48.33;;;31.90;;
24325;SDS011;12448;45.532;5.290;2023-05-23T14:25:25;49.65;;;32.42;;
24325;SDS011;12448;45.532;5.290;2023-05-23T14:27:51;48.13;;;32.40;;
24325;SDS011;12448;45.532;5.290;2023-05-23T14:30:29;48.80;;;33.03;;
24325;SDS011;12448;45.532;5.290;2023-05-23T14:32:55;53.63;;;34.03;;
24325;SDS011;12448;45.532;5.290;2023-05-23T14:35:21;53.55;;;31.98;;
24325;SDS011;12448;45.532;5.290;2023-05-23T14:37:50;52.20;;;33.38;;
24325;SDS011;12448;45.532;5.290;2023-05-23T14:40:16;56.42;;;33.63;;
24325;SDS011;12448;45.532;5.290;2023-05-23T14:42:41;52.78;;;33.55;;
24325;SDS011;12448;45.532;5.290;2023-05-23T14:45:39;52.15;;;34.72;;
24325;SDS011;12448;45.532;5.290;2023-05-23T14:48:05;54.45;;;35.28;;
24325;SDS011;12448;45.532;5.290;2023-05-23T14:50:31;55.50;;;32.10;;
24325;SDS011;12448;45.532;5.290;2023-05-23T14:53:03;61.00;;;36.35;;
24325;SDS011;12448;45.532;5.290;2023-05-23T14:55:32;57.95;;;36.75;;
24325;SDS011;12448;45.532;5.290;2023-05-23T14:57:57;61.65;;;36.65;;
24325;SDS011;12448;45.532;5.290;2023-05-23T15:00:24;59.00;;;36.20;;
24325;SDS011;12448;45.532;5.290;2023-05-23T15:02:49;58.38;;;37.90;;
24325;SDS011;12448;45.532;5.290;2023-05-23T15:05:15;60.22;;;36.05;;
24325;SDS011;12448;45.532;5.290;2023-05-23T15:07:41;62.88;;;38.00;;
24325;SDS011;12448;45.532;5.290;2023-05-23T15:10:08;59.72;;;36.83;;
24325;SDS011;12448;45.532;5.290;2023-05-23T15:12:34;66.65;;;38.00;;
24325;SDS011;12448;45.532;5.290;2023-05-23T15:15:00;62.15;;;37.40;;
24325;SDS011;12448;45.532;5.290;2023-05-23T15:17:30;60.33;;;37.75;;
24325;SDS011;12448;45.532;5.290;2023-05-23T15:19:57;60.25;;;38.30;;
24325;SDS011;12448;45.532;5.290;2023-05-23T15:22:23;63.10;;;38.72;;
24325;SDS011;12448;45.532;5.290;2023-05-23T15:24:49;63.97;;;38.83;;
24325;SDS011;12448;45.532;5.290;2023-05-23T15:27:14;61.63;;;38.42;;
24325;SDS011;12448;45.532;5.290;2023-05-23T15:29:40;57.75;;;38.30;;
24325;SDS011;12448;45.532;5.290;2023-05-23T15:32:06;61.30;;;36.42;;
24325;SDS011;12448;45.532;5.290;2023-05-23T15:34:32;60.75;;;37.35;;
24325;SDS011;12448;45.532;5.290;2023-05-23T15:36:58;57.33;;;37.60;;
24325;SDS011;12448;45.532;5.290;2023-05-23T15:39:27;64.78;;;38.80;;
24325;SDS011;12448;45.532;5.290;2023-05-23T15:41:52;63.80;;;37.00;;
24325;SDS011;12448;45.532;5.290;2023-05-23T15:44:49;59.55;;;38.70;;
24325;SDS011;12448;45.532;5.290;2023-05-23T15:47:15;61.78;;;37.00;;
24325;SDS011;12448;45.532;5.290;2023-05-23T15:49:40;58.88;;;38.40;;
24325;SDS011;12448;45.532;5.290;2023-05-23T15:52:06;61.20;;;37.78;;
24325;SDS011;12448;45.532;5.290;2023-05-23T15:54:31;60.78;;;39.40;;
24325;SDS011;12448;45.532;5.290;2023-05-23T15:56:57;57.80;;;37.42;;
24325;SDS011;12448;45.532;5.290;2023-05-23T15:59:22;55.88;;;38.05;;
24325;SDS011;12448;45.532;5.290;2023-05-23T16:01:48;59.28;;;36.30;;
24325;SDS011;12448;45.532;5.290;2023-05-23T16:04:14;55.47;;;37.22;;
24325;SDS011;12448;45.532;5.290;2023-05-23T16:06:40;60.63;;;36.72;;
24325;SDS011;12448;45.532;5.290;2023-05-23T16:09:05;64.13;;;37.13;;
24325;SDS011;12448;45.532;5.290;2023-05-23T16:11:31;60.95;;;37.97;;
24325;SDS011;12448;45.532;5.290;2023-05-23T16:13:56;57.97;;;35.42;;
24325;SDS011;12448;45.532;5.290;2023-05-23T16:16:45;60.47;;;37.58;;
24325;SDS011;12448;45.532;5.290;2023-05-23T16:19:14;61.38;;;38.25;;
24325;SDS011;12448;45.532;5.290;2023-05-23T16:21:49;60.28;;;36.60;;